createdAt,value
2023-05-02T00:00:37.044Z,8.40
2023-05-02T00:07:20.516Z,9.05
2023-05-02T00:14:02.821Z,9.02
2023-05-02T00:20:45.511Z,9.98
2023-05-02T00:27:29.454Z,9.23
2023-05-02T00:34:11.828Z,9.80
2023-05-02T00:40:54.185Z,9.25
2023-05-02T00:47:36.515Z,9.60
2023-05-02T00:54:18.842Z,9.93
2023-05-02T01:01:12.432Z,9.65
2023-05-02T01:07:57.757Z,10.82
2023-05-02T01:14:42.688Z,10.82
2023-05-02T01:21:25.579Z,10.52
2023-05-02T01:28:39.957Z,10.82
2023-05-02T01:35:24.860Z,11.82
2023-05-02T01:42:07.161Z,11.32
2023-05-02T01:48:52.031Z,12.10
2023-05-02T01:55:36.538Z,12.52
2023-05-02T02:02:19.742Z,11.82
2023-05-02T02:09:03.689Z,12.35
2023-05-02T02:15:52.862Z,12.15
2023-05-02T02:22:39.120Z,11.95
2023-05-02T02:29:21.430Z,11.30
2023-05-02T02:36:17.611Z,11.68
2023-05-02T02:43:39.567Z,11.80
2023-05-02T02:50:50.976Z,11.65
2023-05-02T02:57:59.020Z,11.68
2023-05-02T03:04:43.276Z,11.45
2023-05-02T03:11:27.163Z,12.45
2023-05-02T03:18:10.203Z,11.95
2023-05-02T03:24:52.879Z,14.07
2023-05-02T03:31:35.363Z,11.63
2023-05-02T03:38:17.823Z,12.07
2023-05-02T03:45:03.871Z,11.88
2023-05-02T03:51:46.473Z,11.90
2023-05-02T03:58:32.802Z,11.82
2023-05-02T04:05:16.161Z,12.05
2023-05-02T04:11:59.897Z,11.63
2023-05-02T04:18:42.272Z,11.68
2023-05-02T04:25:25.244Z,11.90
2023-05-02T04:32:11.566Z,12.45
2023-05-02T04:38:54.961Z,12.80
2023-05-02T04:45:37.956Z,13.05
2023-05-02T04:52:25.352Z,12.30
2023-05-02T04:59:07.812Z,12.82
2023-05-02T05:05:50.737Z,12.50
2023-05-02T05:12:35.912Z,12.55
2023-05-02T05:19:18.332Z,12.85
2023-05-02T05:26:11.248Z,12.68
2023-05-02T05:32:55.508Z,13.18
2023-05-02T05:39:37.945Z,13.52
2023-05-02T05:46:21.298Z,13.75
2023-05-02T05:53:03.638Z,12.77
2023-05-02T05:59:46.377Z,11.82
2023-05-02T06:06:29.989Z,13.35
2023-05-02T06:13:12.563Z,11.48
2023-05-02T06:19:58.217Z,11.38
2023-05-02T06:26:40.927Z,10.82
2023-05-02T06:33:23.236Z,8.98
2023-05-02T06:40:06.086Z,8.20
2023-05-02T06:46:48.600Z,9.15
2023-05-02T06:53:33.077Z,10.10
2023-05-02T07:00:19.352Z,10.60
2023-05-02T07:07:01.726Z,11.75
2023-05-02T07:13:44.293Z,12.63
2023-05-02T07:20:26.575Z,12.88
2023-05-02T07:27:10.178Z,13.73
2023-05-02T07:33:52.454Z,13.35
2023-05-02T07:40:34.720Z,14.05
2023-05-02T07:47:17.018Z,15.07
2023-05-02T07:53:59.482Z,15.27
2023-05-02T08:00:42.054Z,15.20
2023-05-02T08:07:24.418Z,16.92
2023-05-02T08:14:06.689Z,19.20
2023-05-02T08:20:50.659Z,18.33
2023-05-02T08:27:35.222Z,18.42
2023-05-02T08:34:17.506Z,18.05
2023-05-02T08:41:00.859Z,18.88
2023-05-02T08:47:44.677Z,18.05
2023-05-02T08:54:27.826Z,20.38
2023-05-02T09:01:16.794Z,18.60
2023-05-02T09:07:59.321Z,18.58
2023-05-02T09:14:43.644Z,18.48
2023-05-02T09:21:34.875Z,17.17
2023-05-02T09:28:17.226Z,16.95
2023-05-02T09:35:06.624Z,17.83
2023-05-02T09:41:49.496Z,19.15
2023-05-02T09:48:34.027Z,17.55
2023-05-02T09:55:25.539Z,17.58
2023-05-02T10:02:11.075Z,17.17
2023-05-02T10:08:53.483Z,17.45
2023-05-02T10:15:42.327Z,18.15
2023-05-02T10:22:25.851Z,17.25
2023-05-02T10:29:08.683Z,16.52
2023-05-02T10:35:51.166Z,16.17
2023-05-02T10:42:39.202Z,16.08
2023-05-02T10:49:23.744Z,16.08
2023-05-02T10:56:26.458Z,15.70
2023-05-02T11:03:10.986Z,15.57
2023-05-02T11:09:53.370Z,15.18
2023-05-02T11:17:00.775Z,15.50
2023-05-02T11:23:43.753Z,14.77
2023-05-02T11:30:40.855Z,15.45
2023-05-02T11:37:23.156Z,15.02
2023-05-02T11:44:05.539Z,16.27
2023-05-02T11:50:51.050Z,16.23
2023-05-02T11:57:33.834Z,17.35
2023-05-02T12:04:16.241Z,16.50
2023-05-02T12:10:58.524Z,18.77
2023-05-02T12:17:42.960Z,18.83
2023-05-02T12:24:25.520Z,16.52
2023-05-02T12:31:11.051Z,16.58
2023-05-02T12:37:56.783Z,18.40
2023-05-02T12:44:40.773Z,20.77
2023-05-02T12:51:28.490Z,18.42
2023-05-02T12:58:14.649Z,18.80
2023-05-02T13:04:56.977Z,19.35
2023-05-02T13:11:39.460Z,19.88
2023-05-02T13:18:21.841Z,16.08
2023-05-02T13:25:24.251Z,14.63
2023-05-02T13:32:06.538Z,15.25
2023-05-02T13:38:48.802Z,13.52
2023-05-02T13:45:31.163Z,12.63
2023-05-02T13:52:13.560Z,10.95
2023-05-02T13:58:56.174Z,11.60
2023-05-02T14:05:40.968Z,14.95
2023-05-02T14:12:23.312Z,13.73
2023-05-02T14:19:05.862Z,12.52
2023-05-02T14:25:48.184Z,12.10
2023-05-02T14:32:30.559Z,9.98
2023-05-02T14:39:12.995Z,9.68
2023-05-02T14:45:56.694Z,9.32
2023-05-02T14:52:39.050Z,8.27
2023-05-02T14:59:21.717Z,7.85
2023-05-02T15:06:04.254Z,9.15
2023-05-02T15:12:50.617Z,6.63
2023-05-02T15:19:32.906Z,6.25
2023-05-02T15:26:15.244Z,6.40
2023-05-02T15:32:57.723Z,5.32
2023-05-02T15:39:40.250Z,5.18
2023-05-02T15:46:22.729Z,5.68
2023-05-02T15:53:05.081Z,3.33
2023-05-02T15:59:47.397Z,3.20
2023-05-02T16:06:30.929Z,3.08
2023-05-02T16:13:13.268Z,3.15
2023-05-02T16:19:55.582Z,3.00
2023-05-02T16:26:37.905Z,2.67
2023-05-02T16:33:21.450Z,3.40
2023-05-02T16:40:05.630Z,2.95
2023-05-02T16:46:48.702Z,2.45
2023-05-02T16:53:31.291Z,2.30
2023-05-02T17:00:14.805Z,2.85
2023-05-02T17:06:57.151Z,2.60
2023-05-02T17:13:39.569Z,2.63
2023-05-02T17:20:21.895Z,2.90
2023-05-02T17:27:04.248Z,2.95
2023-05-02T17:33:47.475Z,2.90
2023-05-02T17:40:29.838Z,3.10
2023-05-02T17:47:12.970Z,3.50
2023-05-02T17:53:55.422Z,3.65
2023-05-02T18:00:38.071Z,3.55
2023-05-02T18:07:23.999Z,5.40
2023-05-02T18:14:06.368Z,3.65
2023-05-02T18:20:48.758Z,3.40
2023-05-02T18:27:31.088Z,3.85
2023-05-02T18:34:13.443Z,4.03
2023-05-02T18:40:55.754Z,4.55
2023-05-02T18:47:38.073Z,4.75
2023-05-02T18:54:20.599Z,5.75
2023-05-02T19:01:14.937Z,4.95
2023-05-02T19:07:57.532Z,5.10
2023-05-02T19:14:40.171Z,5.65
2023-05-02T19:21:22.611Z,5.22
2023-05-02T19:28:05.041Z,5.28
2023-05-02T19:34:47.442Z,5.65
2023-05-02T19:41:29.822Z,5.18
2023-05-02T19:48:12.846Z,5.68
2023-05-02T19:54:56.546Z,5.60
2023-05-02T20:01:38.836Z,5.50
2023-05-02T20:08:23.795Z,6.53
2023-05-02T20:15:06.630Z,6.50
2023-05-02T20:21:48.949Z,6.40
2023-05-02T20:28:31.293Z,6.47
2023-05-02T20:35:13.587Z,5.65
2023-05-02T20:41:58.152Z,6.68
2023-05-02T20:48:40.424Z,6.40
2023-05-02T20:55:23.171Z,5.85
2023-05-02T21:02:08.438Z,6.40
2023-05-02T21:08:51.120Z,6.43
2023-05-02T21:15:36.629Z,5.90
2023-05-02T21:22:18.977Z,6.18
2023-05-02T21:29:01.343Z,5.65
2023-05-02T21:35:44.464Z,5.63
2023-05-02T21:42:26.788Z,5.38
2023-05-02T21:49:09.149Z,4.72
2023-05-02T21:55:52.683Z,5.22
2023-05-02T22:02:35.260Z,5.05
2023-05-02T22:09:18.478Z,5.28
2023-05-02T22:16:00.808Z,4.82
2023-05-02T22:22:43.076Z,4.68
2023-05-02T22:29:25.379Z,4.32
2023-05-02T22:36:08.660Z,4.57
2023-05-02T22:42:51.186Z,4.63
2023-05-02T22:49:33.932Z,5.32
2023-05-02T22:56:16.270Z,5.43
2023-05-02T23:02:58.688Z,5.00
2023-05-02T23:09:40.979Z,5.20
2023-05-02T23:16:23.955Z,4.82
2023-05-02T23:23:06.268Z,5.03
2023-05-02T23:29:49.124Z,5.25
2023-05-02T23:36:32.897Z,5.32
2023-05-02T23:43:15.237Z,5.00
2023-05-02T23:49:57.490Z,5.18
2023-05-02T23:56:39.933Z,4.50
